createdAt,value
2022-07-27T00:01:00.532Z,25.10
2022-07-27T00:03:27.114Z,25.10
2022-07-27T00:05:53.634Z,25.20
2022-07-27T00:08:20.153Z,25.10
2022-07-27T00:10:46.679Z,25.10
2022-07-27T00:13:13.190Z,25.00
2022-07-27T00:15:39.710Z,25.00
2022-07-27T00:18:06.213Z,25.10
2022-07-27T00:20:32.739Z,25.00
2022-07-27T00:22:59.286Z,25.10
2022-07-27T00:25:29.499Z,25.00
2022-07-27T00:27:56.013Z,25.10
2022-07-27T00:30:22.552Z,25.00
2022-07-27T00:32:49.075Z,25.10
2022-07-27T00:35:15.596Z,25.10
2022-07-27T00:37:42.127Z,25.00
2022-07-27T00:40:08.676Z,25.10
2022-07-27T00:42:35.371Z,25.00
2022-07-27T00:45:02.011Z,25.00
2022-07-27T00:47:28.523Z,25.00
2022-07-27T00:49:55.041Z,25.00
2022-07-27T00:52:23.469Z,25.00
2022-07-27T00:54:50.000Z,25.00
2022-07-27T00:57:16.516Z,25.00
2022-07-27T00:59:43.055Z,25.00
2022-07-27T01:02:11.320Z,25.00
2022-07-27T01:04:38.761Z,25.10
2022-07-27T01:07:06.049Z,25.00
2022-07-27T01:09:35.573Z,25.00
2022-07-27T01:12:02.137Z,25.00
2022-07-27T01:14:28.831Z,25.00
2022-07-27T01:16:55.476Z,25.00
2022-07-27T01:19:22.015Z,25.00
2022-07-27T01:21:48.537Z,24.90
2022-07-27T01:24:15.058Z,24.90
2022-07-27T01:26:41.583Z,25.00
2022-07-27T01:29:11.824Z,25.00
2022-07-27T01:31:38.779Z,25.00
2022-07-27T01:34:05.361Z,24.90
2022-07-27T01:36:31.877Z,25.00
2022-07-27T01:38:58.380Z,24.90
2022-07-27T01:41:25.434Z,25.00
2022-07-27T01:43:51.947Z,25.00
2022-07-27T01:46:18.544Z,24.90
2022-07-27T01:48:45.128Z,24.90
2022-07-27T01:51:11.733Z,24.90
2022-07-27T01:53:38.251Z,24.90
2022-07-27T01:56:04.780Z,24.90
2022-07-27T01:58:31.304Z,24.90
2022-07-27T02:00:57.841Z,24.90
2022-07-27T02:03:24.376Z,24.90
2022-07-27T02:05:50.913Z,24.80
2022-07-27T02:08:17.435Z,24.90
2022-07-27T02:10:43.975Z,24.90
2022-07-27T02:13:22.259Z,24.90
2022-07-27T02:15:49.648Z,24.90
2022-07-27T02:18:26.746Z,24.80
2022-07-27T02:21:02.371Z,24.80
2022-07-27T02:23:28.885Z,24.90
2022-07-27T02:25:59.611Z,24.90
2022-07-27T02:28:27.247Z,24.90
2022-07-27T02:30:53.796Z,24.80
2022-07-27T02:33:20.368Z,24.80
2022-07-27T02:35:46.940Z,24.80
2022-07-27T02:38:13.468Z,24.80
2022-07-27T02:40:40.029Z,24.80
2022-07-27T02:43:06.556Z,24.80
2022-07-27T02:45:33.102Z,24.80
2022-07-27T02:47:59.634Z,24.80
2022-07-27T02:50:26.186Z,24.80
2022-07-27T02:52:53.572Z,24.80
2022-07-27T02:55:20.101Z,24.80
2022-07-27T02:57:46.627Z,24.80
2022-07-27T03:00:17.647Z,24.70
2022-07-27T03:02:44.175Z,24.80
2022-07-27T03:05:10.682Z,24.70
2022-07-27T03:07:37.208Z,24.80
2022-07-27T03:10:03.736Z,24.70
2022-07-27T03:12:35.626Z,24.70
2022-07-27T03:15:02.132Z,24.70
2022-07-27T03:17:28.648Z,24.80
2022-07-27T03:19:55.155Z,24.70
2022-07-27T03:22:21.685Z,24.70
2022-07-27T03:24:48.207Z,24.70
2022-07-27T03:27:14.737Z,24.70
2022-07-27T03:29:41.268Z,24.70
2022-07-27T03:32:07.808Z,24.70
2022-07-27T03:34:34.330Z,24.70
2022-07-27T03:37:00.862Z,24.70
2022-07-27T03:39:27.382Z,24.70
2022-07-27T03:41:53.929Z,24.70
2022-07-27T03:44:20.437Z,24.70
2022-07-27T03:46:46.967Z,24.70
2022-07-27T03:49:14.535Z,24.70
2022-07-27T03:51:41.571Z,24.70
2022-07-27T03:54:08.107Z,24.60
2022-07-27T03:56:34.646Z,24.70
2022-07-27T03:59:01.177Z,24.70
2022-07-27T04:01:27.739Z,24.60
2022-07-27T04:03:54.279Z,24.70
2022-07-27T04:06:20.793Z,24.70
2022-07-27T04:08:47.314Z,24.70
2022-07-27T04:11:18.226Z,24.70
2022-07-27T04:13:45.545Z,24.70
2022-07-27T04:16:14.032Z,24.70
2022-07-27T04:18:40.597Z,24.70
2022-07-27T04:21:07.122Z,24.60
2022-07-27T04:23:37.994Z,24.70
2022-07-27T04:26:04.914Z,24.60
2022-07-27T04:28:35.706Z,24.60
2022-07-27T04:31:02.274Z,24.70
2022-07-27T04:33:28.870Z,24.60
2022-07-27T04:35:59.913Z,24.70
2022-07-27T04:38:26.451Z,24.60
2022-07-27T04:40:57.901Z,24.60
2022-07-27T04:43:24.927Z,24.50
2022-07-27T04:45:54.803Z,24.50
2022-07-27T04:48:21.353Z,24.50
2022-07-27T04:50:47.883Z,24.40
2022-07-27T04:53:14.414Z,24.40
2022-07-27T04:55:40.946Z,24.30
2022-07-27T04:58:07.492Z,24.30
2022-07-27T05:00:34.018Z,24.30
2022-07-27T05:03:00.582Z,24.30
2022-07-27T05:05:27.109Z,24.50
2022-07-27T05:07:53.663Z,24.50
2022-07-27T05:10:20.816Z,24.70
2022-07-27T05:12:47.515Z,24.70
2022-07-27T05:15:14.053Z,24.80
2022-07-27T05:17:40.588Z,24.80
2022-07-27T05:20:07.114Z,24.90
2022-07-27T05:22:37.611Z,24.90
2022-07-27T05:25:06.200Z,24.90
2022-07-27T05:27:32.726Z,24.90
2022-07-27T05:29:59.262Z,24.90
2022-07-27T05:32:25.790Z,24.90
2022-07-27T05:34:52.314Z,24.90
2022-07-27T05:37:18.859Z,25.00
2022-07-27T05:39:45.389Z,24.90
2022-07-27T05:42:11.919Z,24.90
2022-07-27T05:44:38.459Z,24.90
2022-07-27T05:47:06.001Z,24.90
2022-07-27T05:49:32.982Z,24.90
2022-07-27T05:51:59.511Z,24.90
2022-07-27T05:54:26.056Z,24.90
2022-07-27T05:56:52.585Z,24.90
2022-07-27T05:59:19.131Z,24.80
2022-07-27T06:01:45.680Z,24.90
2022-07-27T06:04:14.653Z,24.80
2022-07-27T06:06:41.466Z,24.80
2022-07-27T06:09:08.112Z,24.80
2022-07-27T06:11:34.712Z,24.80
2022-07-27T06:14:05.793Z,24.80
2022-07-27T06:16:32.392Z,24.90
2022-07-27T06:18:59.044Z,24.80
2022-07-27T06:21:25.567Z,24.90
2022-07-27T06:23:52.110Z,24.80
2022-07-27T06:26:18.638Z,24.90
2022-07-27T06:28:45.193Z,24.90
2022-07-27T06:31:11.749Z,24.90
2022-07-27T06:33:41.783Z,24.80
2022-07-27T06:36:10.758Z,24.90
2022-07-27T06:38:37.282Z,24.80
2022-07-27T06:41:03.824Z,24.90
2022-07-27T06:43:30.356Z,24.90
2022-07-27T06:45:56.877Z,25.00
2022-07-27T06:48:23.442Z,24.90
2022-07-27T06:50:53.845Z,24.90
2022-07-27T06:53:21.383Z,25.00
2022-07-27T06:55:48.259Z,25.00
2022-07-27T06:58:14.781Z,24.90
2022-07-27T07:00:41.845Z,24.90
2022-07-27T07:03:08.391Z,24.90
2022-07-27T07:05:34.928Z,24.90
2022-07-27T07:08:05.130Z,25.00
2022-07-27T07:10:31.679Z,24.90
2022-07-27T07:12:58.249Z,24.90
2022-07-27T07:15:24.790Z,24.80
2022-07-27T07:17:51.295Z,24.90
2022-07-27T07:20:17.841Z,24.90
2022-07-27T07:22:44.366Z,24.80
2022-07-27T07:25:10.953Z,24.70
2022-07-27T07:27:37.464Z,24.50
2022-07-27T07:30:03.984Z,24.50
2022-07-27T07:32:33.557Z,24.70
2022-07-27T07:35:00.400Z,24.90
2022-07-27T07:37:33.438Z,25.00
2022-07-27T07:40:13.064Z,24.60
2022-07-27T07:42:47.159Z,24.60
2022-07-27T07:45:13.698Z,24.80
2022-07-27T07:47:40.216Z,24.90
2022-07-27T07:50:06.759Z,24.80
2022-07-27T07:52:33.291Z,24.80
2022-07-27T07:54:59.824Z,24.60
2022-07-27T07:57:29.858Z,24.80
2022-07-27T07:59:56.384Z,24.80
2022-07-27T08:02:22.915Z,24.50
2022-07-27T08:04:49.445Z,24.70
2022-07-27T08:07:16.017Z,24.90
2022-07-27T08:09:42.536Z,24.90
2022-07-27T08:12:09.050Z,25.00
2022-07-27T08:14:35.564Z,24.90
2022-07-27T08:17:02.074Z,25.00
2022-07-27T08:19:28.582Z,24.90
2022-07-27T08:21:55.128Z,24.90
2022-07-27T08:24:21.638Z,25.00
2022-07-27T08:26:53.884Z,25.00
2022-07-27T08:29:23.173Z,25.00
2022-07-27T08:31:51.148Z,25.00
2022-07-27T08:34:18.313Z,25.00
2022-07-27T08:36:44.858Z,25.10
2022-07-27T08:39:24.929Z,25.00
2022-07-27T08:41:57.915Z,25.00
2022-07-27T08:44:24.431Z,25.10
2022-07-27T08:46:51.021Z,25.00
2022-07-27T08:49:18.103Z,25.10
2022-07-27T08:51:47.333Z,25.10
2022-07-27T08:54:14.059Z,25.10
2022-07-27T08:56:40.597Z,25.10
2022-07-27T08:59:07.115Z,25.10
2022-07-27T09:01:33.742Z,25.10
2022-07-27T09:04:00.329Z,25.10
2022-07-27T09:06:26.848Z,25.10
2022-07-27T09:08:53.500Z,25.10
2022-07-27T09:11:20.261Z,25.00
2022-07-27T09:13:46.802Z,25.10
2022-07-27T09:16:18.588Z,25.10
2022-07-27T09:18:46.006Z,25.10
2022-07-27T09:21:12.541Z,25.10
2022-07-27T09:23:39.072Z,25.10
2022-07-27T09:26:12.529Z,25.00
2022-07-27T09:28:48.419Z,25.00
2022-07-27T09:31:14.973Z,25.10
2022-07-27T09:33:41.516Z,25.10
2022-07-27T09:36:08.051Z,25.10
2022-07-27T09:38:34.568Z,25.10
2022-07-27T09:41:01.095Z,25.10
2022-07-27T09:44:28.631Z,25.10
2022-07-27T09:46:14.483Z,25.10
2022-07-27T09:48:41.085Z,25.10
2022-07-27T09:51:43.498Z,25.00
2022-07-27T09:54:00.006Z,25.00
2022-07-27T09:56:26.568Z,25.00
2022-07-27T09:58:53.085Z,25.00
2022-07-27T10:01:19.695Z,25.00
2022-07-27T10:03:46.396Z,25.00
2022-07-27T10:06:12.930Z,25.00
2022-07-27T10:08:39.462Z,25.00
2022-07-27T10:11:07.376Z,24.90
2022-07-27T10:13:33.973Z,24.90
2022-07-27T10:16:10.384Z,25.00
2022-07-27T10:18:36.936Z,24.70
2022-07-27T10:21:04.429Z,24.70
2022-07-27T10:23:30.959Z,24.90
2022-07-27T10:25:59.974Z,25.00
2022-07-27T10:28:26.513Z,25.00
2022-07-27T10:30:54.729Z,25.00
2022-07-27T10:33:21.431Z,25.10
2022-07-27T10:35:47.986Z,25.00
2022-07-27T10:38:14.517Z,25.10
2022-07-27T10:40:41.077Z,25.10
2022-07-27T10:43:07.584Z,25.00
2022-07-27T10:45:50.211Z,25.00
2022-07-27T10:48:20.613Z,25.00
2022-07-27T10:50:51.305Z,25.10
2022-07-27T10:53:17.826Z,25.00
2022-07-27T10:55:44.365Z,25.00
2022-07-27T10:58:10.901Z,25.10
2022-07-27T11:00:37.447Z,25.00
2022-07-27T11:03:03.952Z,25.00
2022-07-27T11:05:58.974Z,25.10
2022-07-27T11:08:36.651Z,25.10
2022-07-27T11:11:03.508Z,25.10
2022-07-27T11:13:32.969Z,25.10
2022-07-27T11:18:53.038Z,25.10
2022-07-27T11:21:25.841Z,25.10
2022-07-27T11:23:52.857Z,25.10
2022-07-27T11:26:19.403Z,25.10
2022-07-27T11:28:45.944Z,25.10
2022-07-27T11:31:12.531Z,25.10
2022-07-27T11:33:39.087Z,25.10
2022-07-27T11:36:05.609Z,25.00
2022-07-27T11:38:32.131Z,25.10
2022-07-27T11:41:11.469Z,25.10
2022-07-27T11:43:45.632Z,25.10
2022-07-27T11:46:12.545Z,25.10
2022-07-27T11:49:05.065Z,25.10
2022-07-27T11:51:28.637Z,25.10
2022-07-27T11:53:55.188Z,25.10
2022-07-27T11:56:21.716Z,25.10
2022-07-27T11:58:52.692Z,25.10
2022-07-27T12:01:19.203Z,25.10
2022-07-27T12:03:46.768Z,25.10
2022-07-27T12:06:14.195Z,25.10
2022-07-27T12:08:40.737Z,25.20
2022-07-27T12:11:07.249Z,25.20
2022-07-27T12:13:33.775Z,25.10
2022-07-27T12:16:00.306Z,25.20
2022-07-27T12:18:26.833Z,25.20
2022-07-27T12:20:53.349Z,25.20
2022-07-27T12:23:19.890Z,25.20
2022-07-27T12:25:46.431Z,25.20
2022-07-27T12:28:13.004Z,25.20
2022-07-27T12:30:39.600Z,25.20
2022-07-27T12:33:06.189Z,25.20
2022-07-27T12:35:36.709Z,25.20
2022-07-27T12:38:04.526Z,25.00
2022-07-27T12:40:31.047Z,25.10
2022-07-27T12:42:57.591Z,25.10
2022-07-27T12:45:24.121Z,25.10
2022-07-27T12:47:50.671Z,25.10
2022-07-27T12:50:17.194Z,25.20
2022-07-27T12:52:43.745Z,25.10
2022-07-27T12:55:15.739Z,25.20
2022-07-27T12:57:55.111Z,25.20
2022-07-27T13:00:22.089Z,25.20
2022-07-27T13:02:48.711Z,25.10
2022-07-27T13:05:15.295Z,25.10
2022-07-27T13:07:41.825Z,25.20
2022-07-27T13:10:08.353Z,25.20
2022-07-27T13:12:34.884Z,25.20
2022-07-27T13:15:01.419Z,25.20
2022-07-27T13:17:27.932Z,25.20
2022-07-27T13:19:54.457Z,25.20
2022-07-27T13:22:20.964Z,25.20
2022-07-27T13:24:47.526Z,25.20
2022-07-27T13:27:15.259Z,25.20
2022-07-27T13:29:41.773Z,25.10
2022-07-27T13:32:08.365Z,25.20
2022-07-27T13:34:35.004Z,25.20
2022-07-27T13:37:01.537Z,25.20
2022-07-27T13:39:28.073Z,25.20
2022-07-27T13:41:54.927Z,25.20
2022-07-27T13:44:49.980Z,25.20
2022-07-27T13:47:08.210Z,25.20
2022-07-27T13:49:34.745Z,25.20
2022-07-27T13:52:01.310Z,25.20
2022-07-27T13:54:27.835Z,25.10
2022-07-27T13:57:00.325Z,25.10
2022-07-27T13:59:26.866Z,25.10
2022-07-27T14:01:56.317Z,25.00
2022-07-27T14:04:22.998Z,25.00
2022-07-27T14:06:49.514Z,25.00
2022-07-27T14:09:17.730Z,25.00
2022-07-27T14:11:50.877Z,25.00
2022-07-27T14:14:21.788Z,25.10
2022-07-27T14:16:51.972Z,25.10
2022-07-27T14:19:18.980Z,25.10
2022-07-27T14:21:45.971Z,25.10
2022-07-27T14:24:12.522Z,25.10
2022-07-27T14:26:39.060Z,25.20
2022-07-27T14:29:05.630Z,25.20
2022-07-27T14:31:32.225Z,25.20
2022-07-27T14:33:58.839Z,25.20
2022-07-27T14:36:25.346Z,25.20
2022-07-27T14:38:51.895Z,25.20
2022-07-27T14:41:24.364Z,25.20
2022-07-27T14:43:54.196Z,25.20
2022-07-27T14:46:20.787Z,25.20
2022-07-27T14:51:33.900Z,25.20
2022-07-27T14:54:00.446Z,25.10
2022-07-27T14:56:26.977Z,25.10
2022-07-27T14:58:53.538Z,25.20
2022-07-27T15:01:20.141Z,25.10
2022-07-27T15:03:46.711Z,25.10
2022-07-27T15:06:13.230Z,25.00
2022-07-27T15:08:39.748Z,24.90
2022-07-27T15:11:06.295Z,24.90
2022-07-27T15:13:32.818Z,24.90
2022-07-27T15:15:59.372Z,24.80
2022-07-27T15:18:25.907Z,24.90
2022-07-27T15:20:52.427Z,24.80
2022-07-27T15:23:18.964Z,24.80
2022-07-27T15:25:48.227Z,24.80
2022-07-27T15:28:15.074Z,24.80
2022-07-27T15:30:41.597Z,24.80
2022-07-27T15:33:08.103Z,24.80
2022-07-27T15:35:34.643Z,24.80
2022-07-27T15:38:01.173Z,24.80
2022-07-27T15:40:27.725Z,24.90
2022-07-27T15:42:54.232Z,24.90
2022-07-27T15:45:20.780Z,24.90
2022-07-27T15:47:52.325Z,24.90
2022-07-27T15:50:19.239Z,25.00
2022-07-27T15:52:45.758Z,24.90
2022-07-27T15:55:12.308Z,25.00
2022-07-27T15:57:38.839Z,24.90
2022-07-27T16:00:05.361Z,25.00
2022-07-27T16:02:32.712Z,25.00
2022-07-27T16:05:00.816Z,25.00
2022-07-27T16:07:27.337Z,25.00
2022-07-27T16:10:07.155Z,25.00
2022-07-27T16:12:37.857Z,25.00
2022-07-27T16:15:04.907Z,25.10
2022-07-27T16:17:31.429Z,25.00
2022-07-27T16:19:57.952Z,25.00
2022-07-27T16:22:24.498Z,25.00
2022-07-27T16:24:51.030Z,25.00
2022-07-27T16:27:17.563Z,25.00
2022-07-27T16:29:44.098Z,25.00
2022-07-27T16:32:12.303Z,25.00
2022-07-27T16:34:38.837Z,25.00
2022-07-27T16:37:05.381Z,25.00
2022-07-27T16:39:31.909Z,25.00
2022-07-27T16:41:58.501Z,25.10
2022-07-27T16:44:25.049Z,25.00
2022-07-27T16:46:51.654Z,25.10
2022-07-27T16:49:18.561Z,25.10
2022-07-27T16:51:45.254Z,25.10
2022-07-27T16:54:12.250Z,25.10
2022-07-27T16:56:38.797Z,25.20
2022-07-27T16:59:05.318Z,25.10
2022-07-27T17:01:31.854Z,25.10
2022-07-27T17:03:58.469Z,25.10
2022-07-27T17:06:25.019Z,25.10
2022-07-27T17:08:51.533Z,25.20
2022-07-27T17:11:20.778Z,25.20
2022-07-27T17:13:49.082Z,25.20
2022-07-27T17:16:15.908Z,25.20
2022-07-27T17:18:42.508Z,25.20
2022-07-27T17:21:12.649Z,25.20
2022-07-27T17:23:39.901Z,25.20
2022-07-27T17:26:06.544Z,25.30
2022-07-27T17:28:33.080Z,25.20
2022-07-27T17:30:59.672Z,25.30
2022-07-27T17:33:26.202Z,25.30
2022-07-27T17:35:52.726Z,25.30
2022-07-27T17:38:24.474Z,25.20
2022-07-27T17:40:50.994Z,25.30
2022-07-27T17:43:17.518Z,25.30
2022-07-27T17:45:44.039Z,25.30
2022-07-27T17:48:10.563Z,25.30
2022-07-27T17:50:37.103Z,25.30
2022-07-27T17:53:03.633Z,25.30
2022-07-27T17:55:30.161Z,25.40
2022-07-27T17:57:56.696Z,25.40
2022-07-27T18:00:23.232Z,25.50
2022-07-27T18:02:49.747Z,25.50
2022-07-27T18:05:18.322Z,25.40
2022-07-27T18:07:44.842Z,25.50
2022-07-27T18:10:11.357Z,25.50
2022-07-27T18:12:37.887Z,25.50
2022-07-27T18:15:04.417Z,25.40
2022-07-27T18:17:30.932Z,25.40
2022-07-27T18:19:57.429Z,25.40
2022-07-27T18:22:24.171Z,25.50
2022-07-27T18:24:54.496Z,25.50
2022-07-27T18:27:21.020Z,25.50
2022-07-27T18:29:47.542Z,25.50
2022-07-27T18:32:14.081Z,25.50
2022-07-27T18:34:40.628Z,25.50
2022-07-27T18:37:07.169Z,25.50
2022-07-27T18:39:34.054Z,25.50
2022-07-27T18:42:00.716Z,25.50
2022-07-27T18:44:27.237Z,25.50
2022-07-27T18:46:53.771Z,25.50
2022-07-27T18:49:20.378Z,25.50
2022-07-27T18:51:47.136Z,25.50
2022-07-27T18:54:13.647Z,25.40
2022-07-27T18:56:40.193Z,25.30
2022-07-27T18:59:06.712Z,25.30
2022-07-27T19:01:33.310Z,25.30
2022-07-27T19:03:59.859Z,25.20
2022-07-27T19:06:28.475Z,25.20
2022-07-27T19:08:55.009Z,25.30
2022-07-27T19:11:21.532Z,25.20
2022-07-27T19:13:48.044Z,25.20
2022-07-27T19:16:14.570Z,25.10
2022-07-27T19:18:42.435Z,25.10
2022-07-27T19:21:08.957Z,25.10
2022-07-27T19:23:35.494Z,25.10
2022-07-27T19:26:02.009Z,25.20
2022-07-27T19:28:28.551Z,25.20
2022-07-27T19:30:55.121Z,25.20
2022-07-27T19:33:21.689Z,25.20
2022-07-27T19:35:48.205Z,25.20
2022-07-27T19:38:14.750Z,25.20
2022-07-27T19:40:44.551Z,25.30
2022-07-27T19:43:12.046Z,25.30
2022-07-27T19:45:38.624Z,25.30
2022-07-27T19:48:05.228Z,25.30
2022-07-27T19:50:31.753Z,25.30
2022-07-27T19:52:58.297Z,25.30
2022-07-27T19:55:24.812Z,25.30
2022-07-27T19:57:51.352Z,25.30
2022-07-27T20:00:17.898Z,25.20
2022-07-27T20:02:44.521Z,25.30
2022-07-27T20:05:11.105Z,25.20
2022-07-27T20:07:37.672Z,25.20
2022-07-27T20:10:04.218Z,25.20
2022-07-27T20:12:30.759Z,25.20
2022-07-27T20:14:57.273Z,25.10
2022-07-27T20:17:23.812Z,25.10
2022-07-27T20:19:50.337Z,25.10
2022-07-27T20:22:16.880Z,25.10
2022-07-27T20:24:43.399Z,25.00
2022-07-27T20:27:09.940Z,25.00
2022-07-27T20:29:38.669Z,25.00
2022-07-27T20:32:05.186Z,25.00
2022-07-27T20:34:31.723Z,25.00
2022-07-27T20:36:58.239Z,25.00
2022-07-27T20:39:25.539Z,25.00
2022-07-27T20:41:52.349Z,25.00
2022-07-27T20:44:18.875Z,25.00
2022-07-27T20:46:45.395Z,25.00
2022-07-27T20:49:12.160Z,25.00
2022-07-27T20:51:38.941Z,24.90
2022-07-27T20:54:05.461Z,24.90
2022-07-27T20:56:31.996Z,24.90
2022-07-27T20:58:58.544Z,24.80
2022-07-27T21:01:25.172Z,24.90
2022-07-27T21:03:51.760Z,24.90
2022-07-27T21:06:18.286Z,24.80
2022-07-27T21:08:46.831Z,24.90
2022-07-27T21:11:13.639Z,24.90
2022-07-27T21:13:40.240Z,24.80
2022-07-27T21:16:06.790Z,24.80
2022-07-27T21:18:33.465Z,24.80
2022-07-27T21:20:59.998Z,24.80
2022-07-27T21:23:26.550Z,24.80
2022-07-27T21:25:53.120Z,24.80
2022-07-27T21:28:23.159Z,24.80
2022-07-27T21:30:51.471Z,24.80
2022-07-27T21:33:18.061Z,24.80
2022-07-27T21:35:44.628Z,24.80
2022-07-27T21:38:11.155Z,24.70
2022-07-27T21:40:37.661Z,24.70
2022-07-27T21:43:04.215Z,24.70
2022-07-27T21:45:30.788Z,24.70
2022-07-27T21:47:57.401Z,24.80
2022-07-27T21:50:23.927Z,24.70
2022-07-27T21:52:50.468Z,24.70
2022-07-27T21:55:18.452Z,24.70
2022-07-27T21:57:49.726Z,24.70
2022-07-27T22:00:16.237Z,24.70
2022-07-27T22:02:42.788Z,24.70
2022-07-27T22:05:09.307Z,24.70
2022-07-27T22:07:35.817Z,24.70
2022-07-27T22:10:02.337Z,24.70
2022-07-27T22:12:28.870Z,24.70
2022-07-27T22:14:55.393Z,24.60
2022-07-27T22:17:21.917Z,24.60
2022-07-27T22:19:48.438Z,24.60
2022-07-27T22:22:14.958Z,24.70
2022-07-27T22:24:41.493Z,24.70
2022-07-27T22:27:08.029Z,24.70
2022-07-27T22:29:36.396Z,24.70
2022-07-27T22:32:02.976Z,24.70
2022-07-27T22:34:29.556Z,24.60
2022-07-27T22:36:56.064Z,24.60
2022-07-27T22:39:22.590Z,24.70
2022-07-27T22:41:49.133Z,24.60
2022-07-27T22:44:15.988Z,24.60
2022-07-27T22:46:46.828Z,24.60
2022-07-27T22:49:13.402Z,24.60
2022-07-27T22:51:49.906Z,24.60
2022-07-27T22:54:19.478Z,24.60
2022-07-27T22:56:46.017Z,24.60
2022-07-27T22:59:12.570Z,24.60
2022-07-27T23:01:45.420Z,24.60
2022-07-27T23:04:14.502Z,24.60
2022-07-27T23:06:41.358Z,24.50
2022-07-27T23:09:07.907Z,24.50
2022-07-27T23:11:34.430Z,24.50
2022-07-27T23:14:00.992Z,24.50
2022-07-27T23:16:27.597Z,24.50
2022-07-27T23:18:54.182Z,24.50
2022-07-27T23:21:20.714Z,24.50
2022-07-27T23:23:54.102Z,24.50
2022-07-27T23:26:20.766Z,24.40
2022-07-27T23:28:49.613Z,24.50
2022-07-27T23:31:16.191Z,24.50
2022-07-27T23:33:42.923Z,24.50
2022-07-27T23:36:09.436Z,24.50
2022-07-27T23:38:35.963Z,24.50
2022-07-27T23:41:02.485Z,24.50
2022-07-27T23:43:29.012Z,24.50
2022-07-27T23:45:55.536Z,24.40
2022-07-27T23:48:22.060Z,24.40
2022-07-27T23:50:54.653Z,24.40
2022-07-27T23:53:21.179Z,24.50
2022-07-27T23:55:47.715Z,24.40
2022-07-27T23:58:14.234Z,24.50
